createdAt,value
2018-12-14T00:02:08.496Z,50.57
2018-12-14T00:04:34.440Z,51.09
2018-12-14T00:07:00.428Z,50.49
2018-12-14T00:09:26.382Z,49.64
2018-12-14T00:11:52.341Z,51.34
2018-12-14T00:14:18.324Z,50.67
2018-12-14T00:16:44.274Z,51.17
2018-12-14T00:19:10.262Z,50.38
2018-12-14T00:21:36.221Z,50.38
2018-12-14T00:24:02.188Z,49.47
2018-12-14T00:26:28.152Z,48.99
2018-12-14T00:28:54.131Z,49.76
2018-12-14T00:31:20.095Z,51.28
2018-12-14T00:33:46.092Z,51.01
2018-12-14T00:36:12.027Z,50.05
2018-12-14T00:38:38.028Z,49.07
2018-12-14T00:41:03.970Z,48.79
2018-12-14T00:43:29.953Z,51.69
2018-12-14T00:45:56.052Z,49.65
2018-12-14T00:48:22.015Z,49.66
2018-12-14T00:50:47.958Z,48.99
2018-12-14T00:53:13.929Z,49.59
2018-12-14T00:55:39.886Z,49.14
2018-12-14T00:58:05.853Z,49.42
2018-12-14T01:00:31.815Z,49.90
2018-12-14T01:02:57.781Z,49.24
2018-12-14T01:05:23.759Z,49.77
2018-12-14T01:07:49.720Z,48.72
2018-12-14T01:10:15.687Z,48.98
2018-12-14T01:12:41.651Z,48.86
2018-12-14T01:15:07.635Z,49.66
2018-12-14T01:17:33.595Z,48.51
2018-12-14T01:19:59.575Z,47.89
2018-12-14T01:22:25.536Z,49.44
2018-12-14T01:24:51.511Z,49.70
2018-12-14T01:27:17.467Z,48.71
2018-12-14T01:29:43.420Z,48.50
2018-12-14T01:32:09.880Z,49.16
2018-12-14T01:34:35.855Z,48.81
2018-12-14T01:37:01.831Z,49.44
2018-12-14T01:39:27.843Z,48.26
2018-12-14T01:41:53.788Z,49.34
2018-12-14T01:44:19.747Z,47.92
2018-12-14T01:46:45.689Z,47.92
2018-12-14T01:49:11.629Z,48.57
2018-12-14T01:51:37.600Z,48.72
2018-12-14T01:54:03.560Z,47.74
2018-12-14T01:56:29.504Z,47.58
2018-12-14T01:58:55.460Z,48.30
2018-12-14T02:01:21.415Z,48.29
2018-12-14T02:03:47.364Z,47.90
2018-12-14T02:06:13.364Z,47.84
2018-12-14T02:08:39.321Z,47.59
2018-12-14T02:11:05.284Z,47.81
2018-12-14T02:13:31.240Z,48.67
2018-12-14T02:15:57.207Z,49.80
2018-12-14T02:18:23.160Z,49.02
2018-12-14T02:20:49.128Z,48.27
2018-12-14T02:23:15.095Z,47.14
2018-12-14T02:25:41.106Z,48.53
2018-12-14T02:28:07.048Z,49.57
2018-12-14T02:30:33.031Z,48.35
2018-12-14T02:32:58.965Z,49.21
2018-12-14T02:35:24.959Z,49.07
2018-12-14T02:37:50.927Z,47.95
2018-12-14T02:40:16.875Z,48.24
2018-12-14T02:42:42.834Z,47.51
2018-12-14T02:45:08.830Z,47.04
2018-12-14T02:47:34.772Z,48.36
2018-12-14T02:50:00.720Z,47.72
2018-12-14T02:52:26.665Z,47.58
2018-12-14T02:54:52.633Z,47.99
2018-12-14T02:57:18.596Z,48.73
2018-12-14T02:59:44.538Z,48.09
2018-12-14T03:02:10.505Z,48.04
2018-12-14T03:04:36.448Z,48.50
2018-12-14T03:07:02.421Z,48.15
2018-12-14T03:09:28.367Z,48.20
2018-12-14T03:11:54.309Z,48.27
2018-12-14T03:14:20.269Z,48.26
2018-12-14T03:16:46.260Z,48.38
2018-12-14T03:19:13.113Z,48.75
2018-12-14T03:21:39.073Z,49.00
2018-12-14T03:24:05.036Z,48.97
2018-12-14T03:26:31.014Z,49.23
2018-12-14T03:28:56.961Z,48.58
2018-12-14T03:31:22.933Z,48.32
2018-12-14T03:33:48.898Z,48.82
2018-12-14T03:36:14.864Z,47.63
2018-12-14T03:38:40.825Z,47.50
2018-12-14T03:41:06.784Z,48.88
2018-12-14T03:43:33.371Z,48.88
2018-12-14T03:46:00.447Z,48.58
2018-12-14T03:48:26.398Z,47.79
2018-12-14T03:50:52.367Z,48.62
2018-12-14T03:53:18.311Z,47.60
2018-12-14T03:58:16.650Z,46.66
2018-12-14T04:00:42.623Z,47.77
2018-12-14T04:03:08.626Z,47.45
2018-12-14T04:05:34.578Z,47.39
2018-12-14T04:08:00.562Z,48.47
2018-12-14T04:10:26.523Z,48.14
2018-12-14T04:12:52.472Z,47.41
2018-12-14T04:15:18.530Z,47.75
2018-12-14T04:17:44.566Z,47.23
2018-12-14T04:20:10.510Z,46.53
2018-12-14T04:22:37.449Z,48.32
2018-12-14T04:25:03.416Z,48.85
2018-12-14T04:27:29.388Z,47.22
2018-12-14T04:29:55.356Z,46.61
2018-12-14T04:32:21.330Z,47.84
2018-12-14T04:34:48.359Z,47.88
2018-12-14T04:37:16.741Z,47.52
2018-12-14T04:39:42.773Z,47.45
2018-12-14T04:42:08.811Z,47.83
2018-12-14T04:44:34.779Z,46.81
2018-12-14T04:47:00.845Z,47.01
2018-12-14T04:49:26.813Z,48.01
2018-12-14T04:51:52.874Z,48.26
2018-12-14T04:54:18.875Z,48.49
2018-12-14T04:56:44.928Z,48.76
2018-12-14T04:59:10.892Z,47.95
2018-12-14T05:01:36.858Z,47.23
2018-12-14T05:04:02.806Z,46.88
2018-12-14T05:06:28.988Z,48.08
2018-12-14T05:08:54.970Z,48.52
2018-12-14T05:11:20.982Z,47.86
2018-12-14T05:13:46.940Z,49.42
2018-12-14T05:16:12.987Z,48.52
2018-12-14T05:18:38.967Z,48.87
2018-12-14T05:21:04.922Z,48.65
2018-12-14T05:23:30.864Z,48.81
2018-12-14T05:25:56.821Z,49.22
2018-12-14T05:28:22.784Z,49.14
2018-12-14T05:30:48.727Z,48.54
2018-12-14T05:33:14.820Z,48.39
2018-12-14T05:35:40.802Z,49.06
2018-12-14T05:38:06.750Z,48.95
2018-12-14T05:40:32.728Z,49.63
2018-12-14T05:43:02.597Z,49.17
2018-12-14T05:45:26.652Z,48.23
2018-12-14T05:47:52.615Z,49.70
2018-12-14T05:50:18.613Z,48.84
2018-12-14T05:52:44.603Z,49.15
2018-12-14T05:55:10.537Z,49.78
2018-12-14T05:57:36.512Z,49.35
2018-12-14T06:00:02.459Z,49.14
2018-12-14T06:02:28.440Z,48.72
2018-12-14T06:04:54.408Z,49.18
2018-12-14T06:07:20.381Z,49.97
2018-12-14T06:09:46.322Z,49.31
2018-12-14T06:12:12.382Z,49.55
2018-12-14T06:14:38.350Z,50.21
2018-12-14T06:17:04.316Z,50.65
2018-12-14T06:19:30.270Z,49.97
2018-12-14T06:21:56.231Z,49.89
2018-12-14T06:24:22.187Z,49.82
2018-12-14T06:26:48.208Z,49.75
2018-12-14T06:29:14.156Z,49.79
2018-12-14T06:31:40.116Z,49.49
2018-12-14T06:34:06.049Z,50.30
2018-12-14T06:36:32.008Z,49.25
2018-12-14T06:38:59.724Z,49.40
2018-12-14T06:41:25.683Z,49.38
2018-12-14T06:43:51.643Z,50.04
2018-12-14T06:46:17.605Z,50.28
2018-12-14T06:48:44.548Z,50.26
2018-12-14T06:51:11.438Z,50.97
2018-12-14T06:53:37.415Z,49.88
2018-12-14T06:56:03.365Z,50.39
2018-12-14T06:58:29.363Z,50.37
2018-12-14T07:00:55.445Z,50.50
2018-12-14T07:03:22.236Z,50.28
2018-12-14T07:05:48.175Z,49.49
2018-12-14T07:08:14.360Z,48.78
2018-12-14T07:10:40.308Z,48.15
2018-12-14T07:13:07.360Z,49.14
2018-12-14T07:15:33.299Z,50.31
2018-12-14T07:17:59.268Z,50.27
2018-12-14T07:20:26.179Z,50.52
2018-12-14T07:22:52.188Z,50.46
2018-12-14T07:25:18.156Z,49.87
2018-12-14T07:27:45.240Z,50.16
2018-12-14T07:30:11.209Z,49.88
2018-12-14T07:32:38.140Z,51.62
2018-12-14T07:35:04.371Z,51.35
2018-12-14T07:37:30.320Z,49.25
2018-12-14T07:39:56.287Z,50.16
2018-12-14T07:42:22.243Z,50.40
2018-12-14T07:44:48.290Z,49.14
2018-12-14T07:47:14.492Z,49.52
2018-12-14T07:49:40.437Z,49.78
2018-12-14T07:52:07.665Z,50.03
2018-12-14T07:54:33.598Z,50.09
2018-12-14T07:56:59.563Z,49.81
2018-12-14T07:59:25.554Z,50.99
2018-12-14T08:01:51.517Z,49.71
2018-12-14T08:04:17.488Z,49.20
2018-12-14T08:06:43.431Z,50.03
2018-12-14T08:09:09.395Z,48.42
2018-12-14T08:11:35.344Z,48.68
2018-12-14T08:14:01.345Z,48.48
2018-12-14T08:16:27.382Z,48.33
2018-12-14T08:18:53.353Z,50.01
2018-12-14T08:21:19.308Z,50.64
2018-12-14T08:23:45.264Z,49.24
2018-12-14T08:26:11.220Z,49.93
2018-12-14T08:28:37.196Z,48.84
2018-12-14T08:31:03.140Z,50.05
2018-12-14T08:33:29.100Z,49.91
2018-12-14T08:35:55.060Z,48.64
2018-12-14T08:38:21.006Z,49.11
2018-12-14T08:40:47.022Z,49.04
2018-12-14T08:43:12.979Z,50.44
2018-12-14T08:45:38.932Z,51.19
2018-12-14T08:48:04.884Z,50.06
2018-12-14T08:50:30.839Z,49.99
2018-12-14T08:52:56.801Z,49.39
2018-12-14T08:55:22.759Z,49.42
2018-12-14T08:57:48.704Z,50.28
2018-12-14T09:00:14.656Z,50.69
2018-12-14T09:02:40.591Z,49.69
2018-12-14T09:05:06.542Z,49.24
2018-12-14T09:07:32.483Z,49.48
2018-12-14T09:09:58.427Z,49.41
2018-12-14T09:12:24.368Z,48.99
2018-12-14T09:14:50.306Z,48.84
2018-12-14T09:17:16.321Z,49.40
2018-12-14T09:19:42.308Z,48.58
2018-12-14T09:22:08.244Z,48.19
2018-12-14T09:24:34.203Z,48.82
2018-12-14T09:27:00.154Z,48.13
2018-12-14T09:29:26.143Z,48.06
2018-12-14T09:31:52.099Z,47.52
2018-12-14T09:34:18.065Z,47.39
2018-12-14T09:36:44.043Z,47.28
2018-12-14T09:39:09.981Z,46.90
2018-12-14T09:41:35.940Z,47.48
2018-12-14T09:44:01.927Z,47.98
2018-12-14T09:46:27.887Z,47.55
2018-12-14T09:48:53.829Z,47.77
2018-12-14T09:51:19.800Z,47.38
2018-12-14T09:53:45.757Z,48.85
2018-12-14T09:56:11.731Z,48.74
2018-12-14T09:58:37.690Z,48.25
2018-12-14T10:01:03.675Z,45.51
2018-12-14T10:03:29.618Z,47.63
2018-12-14T10:05:55.583Z,47.82
2018-12-14T10:08:21.630Z,48.72
2018-12-14T10:10:47.629Z,48.02
2018-12-14T10:13:13.595Z,47.84
2018-12-14T10:15:39.564Z,48.13
2018-12-14T10:18:05.527Z,46.07
2018-12-14T10:20:31.521Z,46.62
2018-12-14T10:25:34.146Z,47.13
2018-12-14T10:28:00.139Z,46.63
2018-12-14T10:30:26.145Z,46.06
2018-12-14T10:32:52.119Z,48.41
2018-12-14T10:35:18.068Z,48.11
2018-12-14T10:37:45.091Z,46.61
2018-12-14T10:40:11.038Z,46.55
2018-12-14T10:42:36.994Z,45.98
2018-12-14T10:45:02.979Z,46.32
2018-12-14T10:47:28.962Z,47.16
2018-12-14T10:49:54.938Z,46.99
2018-12-14T10:52:20.913Z,46.01
2018-12-14T10:54:46.952Z,45.19
2018-12-14T10:57:16.154Z,45.79
2018-12-14T10:59:40.924Z,45.47
2018-12-14T11:02:06.896Z,47.09
2018-12-14T11:04:32.869Z,48.46
2018-12-14T11:06:58.879Z,47.01
2018-12-14T11:09:24.832Z,46.65
2018-12-14T11:11:50.815Z,48.90
2018-12-14T11:14:16.823Z,47.42
2018-12-14T11:16:42.811Z,46.87
2018-12-14T11:19:08.758Z,46.78
2018-12-14T11:21:34.757Z,47.87
2018-12-14T11:24:00.737Z,46.64
2018-12-14T11:26:26.726Z,45.82
2018-12-14T11:28:52.673Z,44.97
2018-12-14T11:31:18.663Z,46.33
2018-12-14T11:33:44.635Z,46.58
2018-12-14T11:36:10.715Z,46.49
2018-12-14T11:38:36.669Z,46.31
2018-12-14T11:41:02.607Z,45.79
2018-12-14T11:43:28.580Z,44.89
2018-12-14T11:45:54.557Z,43.00
2018-12-14T11:48:20.535Z,45.46
2018-12-14T11:50:46.491Z,46.16
2018-12-14T11:53:12.463Z,46.97
2018-12-14T11:55:38.422Z,46.20
2018-12-14T11:58:04.352Z,45.48
2018-12-14T12:00:30.323Z,44.23
2018-12-14T12:02:56.299Z,44.02
2018-12-14T12:05:22.295Z,42.86
2018-12-14T12:07:48.270Z,43.27
2018-12-14T12:10:15.064Z,41.25
2018-12-14T12:12:41.055Z,42.47
2018-12-14T12:15:07.031Z,43.65
2018-12-14T12:17:33.002Z,45.57
2018-12-14T12:22:35.418Z,44.73
2018-12-14T12:25:01.378Z,44.21
2018-12-14T12:27:27.353Z,45.61
2018-12-14T12:29:53.367Z,44.16
2018-12-14T12:32:19.366Z,44.08
2018-12-14T12:34:45.334Z,43.60
2018-12-14T12:37:11.528Z,43.68
2018-12-14T12:39:37.481Z,44.42
2018-12-14T12:42:03.502Z,43.22
2018-12-14T12:44:33.551Z,43.32
2018-12-14T12:46:57.453Z,42.79
2018-12-14T12:49:23.417Z,42.16
2018-12-14T12:51:49.389Z,44.06
2018-12-14T12:54:15.330Z,43.74
2018-12-14T12:56:41.288Z,43.50
2018-12-14T12:59:07.246Z,43.64
2018-12-14T13:01:35.326Z,44.34
2018-12-14T13:04:01.754Z,42.75
2018-12-14T13:06:27.705Z,43.20
2018-12-14T13:08:53.697Z,42.52
2018-12-14T13:11:19.680Z,42.25
2018-12-14T13:13:45.805Z,42.72
2018-12-14T13:16:11.769Z,44.27
2018-12-14T13:18:37.760Z,44.00
2018-12-14T13:21:04.353Z,42.24
2018-12-14T13:23:30.363Z,42.79
2018-12-14T13:25:56.344Z,44.17
2018-12-14T13:28:22.339Z,43.22
2018-12-14T13:30:48.319Z,42.24
2018-12-14T13:33:15.258Z,40.91
2018-12-14T13:35:41.222Z,41.87
2018-12-14T13:38:07.252Z,41.63
2018-12-14T13:40:33.274Z,41.48
2018-12-14T13:42:59.286Z,42.52
2018-12-14T13:45:26.182Z,42.38
2018-12-14T13:55:26.587Z,44.13
2018-12-14T13:57:56.123Z,44.46
2018-12-14T14:00:22.146Z,45.09
2018-12-14T14:02:48.285Z,44.36
2018-12-14T14:05:14.230Z,44.14
2018-12-14T14:07:43.271Z,43.88
2018-12-14T14:12:40.704Z,45.88
2018-12-14T14:15:06.747Z,44.50
2018-12-14T14:17:32.700Z,45.18
2018-12-14T14:19:58.692Z,43.95
2018-12-14T14:22:26.385Z,43.34
2018-12-14T14:24:52.382Z,46.35
2018-12-14T14:27:18.687Z,46.61
2018-12-14T14:29:44.772Z,47.31
2018-12-14T14:32:10.751Z,47.15
2018-12-14T14:34:36.704Z,45.05
2018-12-14T14:42:05.232Z,44.00
2018-12-14T14:44:31.172Z,43.99
2018-12-14T14:46:57.149Z,43.54
2018-12-14T14:49:23.111Z,43.98
2018-12-14T14:51:49.065Z,42.89
2018-12-14T14:54:17.636Z,42.21
2018-12-14T14:56:43.617Z,42.87
2018-12-14T14:59:09.588Z,42.75
2018-12-14T15:01:35.562Z,42.37
2018-12-14T15:04:01.532Z,41.04
2018-12-14T15:06:27.477Z,41.03
2018-12-14T15:08:53.434Z,41.04
2018-12-14T15:11:19.389Z,40.63
2018-12-14T15:13:47.428Z,40.41
2018-12-14T15:16:13.375Z,41.12
2018-12-14T15:18:39.382Z,41.92
2018-12-14T15:21:05.329Z,42.85
2018-12-14T15:23:31.296Z,42.57
2018-12-14T15:25:57.250Z,43.85
2018-12-14T15:28:23.267Z,45.21
2018-12-14T15:30:49.221Z,45.55
2018-12-14T15:33:15.198Z,45.23
2018-12-14T15:35:41.154Z,45.08
2018-12-14T15:38:07.152Z,45.84
2018-12-14T15:40:33.147Z,46.47
2018-12-14T15:43:00.017Z,46.74
2018-12-14T15:47:57.536Z,46.34
2018-12-14T15:50:23.652Z,46.38
2018-12-14T15:52:49.657Z,45.75
2018-12-14T15:55:15.945Z,46.30
2018-12-14T15:57:41.928Z,46.81
2018-12-14T16:00:08.976Z,46.72
2018-12-14T16:02:34.969Z,47.25
2018-12-14T16:05:02.124Z,46.81
2018-12-14T16:07:28.096Z,46.70
2018-12-14T16:09:54.109Z,46.84
2018-12-14T16:12:20.107Z,47.27
2018-12-14T16:14:46.094Z,46.32
2018-12-14T16:17:12.082Z,47.14
2018-12-14T16:19:38.041Z,46.67
2018-12-14T16:22:04.664Z,46.90
2018-12-14T16:27:03.466Z,46.72
2018-12-14T16:29:29.481Z,46.90
2018-12-14T16:31:55.471Z,46.76
2018-12-14T16:34:21.418Z,46.99
2018-12-14T16:36:47.353Z,47.91
2018-12-14T16:39:13.315Z,46.15
2018-12-14T16:41:39.328Z,46.92
2018-12-14T16:44:05.360Z,46.88
2018-12-14T16:46:31.323Z,47.15
2018-12-14T16:48:57.269Z,46.81
2018-12-14T16:51:23.247Z,47.54
2018-12-14T16:53:49.178Z,48.58
2018-12-14T16:56:15.134Z,47.30
2018-12-14T16:58:41.185Z,47.14
2018-12-14T17:16:15.448Z,47.11
2018-12-14T17:18:47.551Z,46.62
2018-12-14T17:21:13.508Z,47.38
2018-12-14T17:23:39.464Z,47.66
2018-12-14T17:26:05.419Z,46.83
2018-12-14T17:28:31.441Z,46.49
2018-12-14T17:30:57.421Z,48.75
2018-12-14T17:33:24.241Z,48.37
2018-12-14T17:35:50.235Z,48.03
2018-12-14T17:38:16.227Z,48.59
2018-12-14T17:40:42.266Z,47.56
2018-12-14T17:43:08.970Z,47.69
2018-12-14T17:45:39.781Z,48.11
2018-12-14T17:48:02.988Z,48.86
2018-12-14T17:50:28.952Z,48.80
2018-12-14T17:52:54.909Z,47.96
2018-12-14T17:55:20.882Z,48.83
2018-12-14T17:57:46.847Z,49.17
2018-12-14T18:00:12.809Z,49.49
2018-12-14T18:02:39.854Z,50.19
2018-12-14T18:05:05.807Z,49.97
2018-12-14T18:07:31.752Z,49.30
2018-12-14T18:09:57.756Z,49.36
2018-12-14T18:12:23.842Z,49.14
2018-12-14T18:14:49.812Z,49.34
2018-12-14T18:17:15.779Z,49.94
2018-12-14T18:19:43.084Z,48.51
2018-12-14T18:22:09.249Z,48.93
2018-12-14T18:24:35.218Z,49.54
2018-12-14T18:27:01.179Z,49.77
2018-12-14T18:29:27.380Z,50.24
2018-12-14T18:31:53.352Z,49.96
2018-12-14T18:34:19.330Z,49.62
2018-12-14T18:36:45.337Z,47.66
2018-12-14T18:39:11.297Z,48.53
2018-12-14T18:41:38.373Z,48.42
2018-12-14T18:44:04.359Z,48.53
2018-12-14T18:46:32.062Z,47.98
2018-12-14T18:48:58.009Z,47.62
2018-12-14T18:51:24.140Z,48.49
2018-12-14T18:53:50.150Z,47.75
2018-12-14T18:56:16.139Z,49.33
2018-12-14T18:58:42.147Z,47.92
2018-12-14T19:01:08.156Z,49.31
2018-12-14T19:03:34.149Z,47.27
2018-12-14T19:06:00.350Z,48.28
2018-12-14T19:08:27.056Z,49.24
2018-12-14T19:10:53.041Z,49.72
2018-12-14T19:13:19.019Z,49.26
2018-12-14T19:15:45.461Z,48.50
2018-12-14T19:18:11.515Z,48.38
2018-12-14T19:20:37.652Z,47.25
2018-12-14T19:23:03.664Z,47.86
2018-12-14T19:25:29.641Z,47.90
2018-12-14T19:27:55.622Z,47.43
2018-12-14T19:30:21.674Z,47.37
2018-12-14T19:32:47.735Z,48.64
2018-12-14T19:35:13.961Z,48.77
2018-12-14T19:37:41.546Z,48.69
2018-12-14T19:40:07.733Z,49.09
2018-12-14T19:42:33.719Z,47.35
2018-12-14T19:44:59.764Z,47.75
2018-12-14T19:47:25.774Z,47.56
2018-12-14T19:49:51.914Z,46.70
2018-12-14T19:52:19.978Z,46.77
2018-12-14T19:54:46.031Z,46.26
2018-12-14T19:57:15.468Z,47.86
2018-12-14T19:59:41.623Z,47.42
2018-12-14T20:02:07.694Z,46.42
2018-12-14T20:07:09.708Z,45.73
2018-12-14T20:09:35.760Z,46.68
2018-12-14T20:12:01.844Z,48.40
2018-12-14T20:14:27.890Z,48.53
2018-12-14T20:16:54.001Z,47.34
2018-12-14T20:21:54.688Z,48.17
2018-12-14T20:24:22.799Z,48.23
2018-12-14T20:26:48.808Z,46.86
2018-12-14T20:29:15.623Z,47.98
2018-12-14T20:34:13.073Z,48.56
2018-12-14T20:36:39.031Z,48.13
2018-12-14T20:39:05.132Z,48.22
2018-12-14T20:41:31.072Z,48.24
2018-12-14T20:43:57.055Z,47.55
2018-12-14T20:46:23.130Z,47.87
2018-12-14T20:48:49.084Z,47.51
2018-12-14T20:51:15.068Z,48.26
2018-12-14T20:53:41.032Z,48.17
2018-12-14T20:56:07.016Z,48.21
2018-12-14T20:58:33.158Z,47.60
2018-12-14T21:00:59.136Z,47.61
2018-12-14T21:03:25.093Z,47.58
2018-12-14T21:05:51.056Z,48.40
2018-12-14T21:08:17.095Z,48.00
2018-12-14T21:10:43.046Z,47.68
2018-12-14T21:13:09.016Z,46.76
2018-12-14T21:15:34.958Z,46.41
2018-12-14T21:18:00.945Z,46.86
2018-12-14T21:20:26.904Z,47.37
2018-12-14T21:22:52.844Z,46.71
2018-12-14T21:25:18.802Z,46.67
2018-12-14T21:27:44.781Z,45.75
2018-12-14T21:30:10.719Z,45.90
2018-12-14T21:32:36.688Z,45.80
2018-12-14T21:35:02.654Z,45.87
2018-12-14T21:37:28.613Z,45.74
2018-12-14T21:39:54.849Z,46.58
2018-12-14T21:42:20.812Z,46.63
2018-12-14T21:44:46.847Z,47.35
2018-12-14T21:47:12.852Z,47.08
2018-12-14T21:49:38.919Z,46.78
2018-12-14T21:52:04.911Z,45.47
2018-12-14T21:54:30.861Z,46.98
2018-12-14T21:56:56.801Z,46.55
2018-12-14T21:59:22.742Z,46.25
2018-12-14T22:01:48.707Z,46.36
2018-12-14T22:04:14.695Z,45.90
2018-12-14T22:06:40.645Z,46.00
2018-12-14T22:09:06.601Z,47.18
2018-12-14T22:11:32.569Z,46.37
2018-12-14T22:13:58.568Z,45.46
2018-12-14T22:16:24.534Z,45.12
2018-12-14T22:18:50.547Z,44.61
2018-12-14T22:21:16.516Z,43.31
2018-12-14T22:23:42.499Z,43.49
2018-12-14T22:26:08.441Z,43.85
2018-12-14T22:28:34.392Z,44.16
2018-12-14T22:31:00.341Z,44.05
2018-12-14T22:33:26.427Z,44.26
2018-12-14T22:35:52.376Z,44.53
2018-12-14T22:38:21.506Z,43.79
2018-12-14T22:40:47.456Z,43.42
2018-12-14T22:43:13.417Z,42.60
2018-12-14T22:45:39.370Z,43.02
2018-12-14T22:48:05.358Z,44.34
2018-12-14T22:50:31.298Z,43.78
2018-12-14T22:52:57.357Z,42.89
2018-12-14T22:55:23.289Z,42.58
2018-12-14T22:57:49.260Z,43.16
2018-12-14T23:00:15.238Z,43.52
2018-12-14T23:02:41.231Z,43.29
2018-12-14T23:05:07.168Z,42.84
2018-12-14T23:07:33.202Z,43.02
2018-12-14T23:09:59.188Z,44.08
2018-12-14T23:12:25.185Z,43.26
2018-12-14T23:14:51.128Z,42.94
2018-12-14T23:17:17.088Z,44.05
2018-12-14T23:19:43.062Z,44.65
2018-12-14T23:22:08.996Z,44.56
2018-12-14T23:24:34.991Z,43.57
2018-12-14T23:27:00.929Z,43.86
2018-12-14T23:29:26.899Z,43.88
2018-12-14T23:31:52.931Z,44.42
2018-12-14T23:34:18.924Z,45.07
2018-12-14T23:36:45.070Z,44.74
2018-12-14T23:39:11.139Z,45.00
2018-12-14T23:41:37.104Z,44.49
2018-12-14T23:44:03.119Z,44.22
2018-12-14T23:46:29.053Z,44.06
2018-12-14T23:48:55.033Z,44.18
2018-12-14T23:51:21.084Z,44.57
2018-12-14T23:53:47.023Z,44.26
2018-12-14T23:56:12.975Z,44.53
2018-12-14T23:58:38.937Z,44.29
